createdAt,value
2023-03-29T00:01:45.870Z,65.02
2023-03-29T00:04:20.932Z,64.57
2023-03-29T00:06:51.304Z,64.70
2023-03-29T00:09:27.216Z,64.56
2023-03-29T00:11:58.648Z,64.44
2023-03-29T00:14:29.165Z,63.83
2023-03-29T00:17:02.829Z,63.75
2023-03-29T00:19:36.161Z,63.55
2023-03-29T00:22:08.822Z,63.19
2023-03-29T00:24:41.976Z,62.99
2023-03-29T00:27:11.913Z,63.21
2023-03-29T00:29:42.472Z,63.29
2023-03-29T00:32:13.369Z,63.63
2023-03-29T00:34:46.068Z,63.92
2023-03-29T00:37:16.441Z,64.84
2023-03-29T00:39:49.543Z,64.61
2023-03-29T00:42:20.693Z,64.79
2023-03-29T00:45:01.869Z,65.03
2023-03-29T00:47:37.926Z,66.01
2023-03-29T00:50:17.260Z,66.68
2023-03-29T00:52:54.988Z,67.66
2023-03-29T00:55:34.612Z,68.11
2023-03-29T00:58:10.105Z,69.14
2023-03-29T01:00:47.688Z,69.78
2023-03-29T01:03:27.488Z,70.52
2023-03-29T01:06:09.253Z,71.40
2023-03-29T01:08:49.378Z,71.76
2023-03-29T01:11:29.330Z,72.45
2023-03-29T01:14:05.721Z,73.08
2023-03-29T01:16:40.303Z,73.48
2023-03-29T01:19:19.281Z,74.03
2023-03-29T01:22:04.968Z,74.16
2023-03-29T01:25:07.734Z,74.32
2023-03-29T01:27:58.371Z,74.69
2023-03-29T01:30:37.831Z,74.99
2023-03-29T01:33:23.600Z,75.62
2023-03-29T01:36:05.096Z,75.78
2023-03-29T01:38:45.442Z,76.99
2023-03-29T01:41:15.593Z,77.28
2023-03-29T01:44:01.506Z,77.55
2023-03-29T01:46:38.919Z,77.93
2023-03-29T01:49:17.282Z,78.41
2023-03-29T01:51:56.613Z,78.75
2023-03-29T01:54:36.587Z,79.05
2023-03-29T01:57:10.536Z,79.29
2023-03-29T01:59:47.507Z,79.67
2023-03-29T02:02:21.813Z,80.10
2023-03-29T02:04:59.379Z,80.24
2023-03-29T02:07:37.629Z,80.79
2023-03-29T02:10:11.616Z,80.71
2023-03-29T02:12:42.213Z,80.99
2023-03-29T02:15:21.752Z,81.43
2023-03-29T02:17:53.125Z,81.42
2023-03-29T02:20:33.801Z,81.64
2023-03-29T02:23:12.513Z,81.78
2023-03-29T02:25:46.062Z,82.06
2023-03-29T02:28:18.447Z,82.41
2023-03-29T02:31:00.941Z,82.78
2023-03-29T02:33:42.486Z,83.18
2023-03-29T02:36:24.620Z,83.57
2023-03-29T02:39:01.303Z,83.79
2023-03-29T02:41:32.127Z,84.03
2023-03-29T02:44:08.684Z,84.05
2023-03-29T02:46:43.947Z,84.31
2023-03-29T02:49:18.463Z,84.11
2023-03-29T02:51:58.507Z,84.31
2023-03-29T02:54:35.223Z,84.77
2023-03-29T02:57:09.211Z,84.86
2023-03-29T02:59:47.432Z,85.30
2023-03-29T03:02:22.330Z,85.08
2023-03-29T03:04:53.765Z,85.66
2023-03-29T03:07:29.288Z,85.62
2023-03-29T03:09:59.853Z,86.11
2023-03-29T03:12:31.583Z,86.31
2023-03-29T03:15:02.972Z,86.36
2023-03-29T03:17:40.293Z,86.24
2023-03-29T03:20:14.251Z,86.60
2023-03-29T03:22:49.604Z,86.54
2023-03-29T03:25:24.044Z,86.75
2023-03-29T03:27:54.590Z,87.13
2023-03-29T03:30:27.780Z,87.32
2023-03-29T03:33:29.433Z,87.81
2023-03-29T03:36:20.060Z,87.86
2023-03-29T03:38:50.819Z,88.31
2023-03-29T03:41:21.087Z,88.52
2023-03-29T03:43:58.383Z,88.40
2023-03-29T03:46:32.272Z,88.72
2023-03-29T03:49:08.727Z,88.96
2023-03-29T03:51:45.572Z,89.33
2023-03-29T03:54:17.787Z,89.32
2023-03-29T03:57:14.129Z,89.43
2023-03-29T03:59:52.843Z,89.48
2023-03-29T04:02:32.926Z,89.17
2023-03-29T04:05:10.241Z,88.93
2023-03-29T04:07:43.068Z,88.73
2023-03-29T04:10:34.497Z,88.74
2023-03-29T04:13:12.383Z,88.05
2023-03-29T04:16:02.673Z,87.70
2023-03-29T04:18:34.807Z,87.37
2023-03-29T04:21:08.740Z,86.99
2023-03-29T04:23:41.018Z,86.65
2023-03-29T04:26:23.899Z,86.60
2023-03-29T04:29:03.323Z,85.73
2023-03-29T04:31:43.004Z,85.48
2023-03-29T04:34:50.144Z,83.64
2023-03-29T04:37:29.753Z,82.57
2023-03-29T04:40:05.727Z,81.24
2023-03-29T04:42:48.240Z,80.64
2023-03-29T04:45:19.116Z,79.05
2023-03-29T04:48:20.969Z,78.89
2023-03-29T04:50:52.533Z,78.33
2023-03-29T04:53:29.286Z,78.17
2023-03-29T04:55:59.830Z,77.81
2023-03-29T04:58:57.026Z,78.02
2023-03-29T05:01:27.306Z,77.69
2023-03-29T05:04:03.548Z,77.90
2023-03-29T05:06:42.787Z,78.24
2023-03-29T05:09:19.188Z,77.74
2023-03-29T05:11:59.282Z,77.72
2023-03-29T05:14:32.181Z,77.62
2023-03-29T05:17:06.589Z,77.75
2023-03-29T05:19:38.523Z,77.27
2023-03-29T05:22:12.771Z,77.03
2023-03-29T05:24:55.031Z,77.03
2023-03-29T05:27:28.736Z,76.99
2023-03-29T05:30:13.549Z,76.62
2023-03-29T05:32:53.138Z,76.71
2023-03-29T05:35:29.265Z,76.90
2023-03-29T05:38:01.007Z,76.88
2023-03-29T05:40:35.931Z,76.59
2023-03-29T05:43:28.743Z,76.43
2023-03-29T05:46:01.018Z,76.43
2023-03-29T05:48:33.905Z,76.66
2023-03-29T05:51:07.562Z,76.11
2023-03-29T05:53:41.374Z,75.96
2023-03-29T05:56:17.127Z,76.06
2023-03-29T05:58:50.593Z,75.68
2023-03-29T06:01:22.785Z,75.81
2023-03-29T06:04:07.505Z,75.58
2023-03-29T06:06:46.801Z,75.56
2023-03-29T06:09:26.852Z,75.23
2023-03-29T06:12:07.328Z,74.74
2023-03-29T06:14:56.596Z,74.99
2023-03-29T06:17:36.205Z,74.95
2023-03-29T06:20:10.960Z,75.09
2023-03-29T06:22:46.824Z,74.65
2023-03-29T06:25:17.838Z,74.88
2023-03-29T06:27:54.103Z,74.82
2023-03-29T06:30:24.413Z,74.45
2023-03-29T06:32:59.225Z,74.07
2023-03-29T06:35:46.577Z,74.36
2023-03-29T06:38:21.389Z,73.87
2023-03-29T06:41:06.957Z,73.39
2023-03-29T06:43:57.931Z,73.21
2023-03-29T06:46:35.353Z,72.82
2023-03-29T06:49:09.237Z,72.60
2023-03-29T06:51:49.946Z,71.98
2023-03-29T06:54:19.877Z,71.50
2023-03-29T06:57:00.729Z,70.84
2023-03-29T06:59:37.818Z,70.70
2023-03-29T07:02:17.481Z,69.70
2023-03-29T07:04:54.512Z,69.39
2023-03-29T07:07:57.038Z,68.64
2023-03-29T07:10:42.825Z,68.46
2023-03-29T07:13:38.438Z,67.93
2023-03-29T07:16:15.400Z,67.64
2023-03-29T07:19:11.720Z,67.60
2023-03-29T07:22:01.363Z,67.38
2023-03-29T07:24:56.104Z,66.76
2023-03-29T07:27:34.988Z,66.42
2023-03-29T07:30:11.264Z,66.21
2023-03-29T07:32:52.537Z,66.23
2023-03-29T07:35:43.941Z,65.56
2023-03-29T07:38:16.446Z,65.42
2023-03-29T07:40:58.494Z,65.43
2023-03-29T07:43:55.432Z,65.52
2023-03-29T07:46:29.586Z,65.70
2023-03-29T07:49:08.337Z,65.99
2023-03-29T07:51:38.581Z,66.22
2023-03-29T07:54:13.267Z,66.39
2023-03-29T07:57:02.093Z,66.29
2023-03-29T07:59:39.079Z,66.30
2023-03-29T08:02:16.778Z,66.16
2023-03-29T08:04:54.094Z,66.20
2023-03-29T08:07:46.507Z,65.84
2023-03-29T08:10:39.616Z,65.96
2023-03-29T08:13:22.742Z,65.63
2023-03-29T08:16:11.952Z,65.38
2023-03-29T08:18:59.261Z,65.17
2023-03-29T08:21:41.597Z,65.11
2023-03-29T08:24:12.926Z,64.99
2023-03-29T08:26:49.436Z,64.76
2023-03-29T08:29:22.521Z,64.71
2023-03-29T08:31:53.002Z,64.49
2023-03-29T08:34:23.019Z,64.56
2023-03-29T08:37:14.130Z,64.36
2023-03-29T08:39:52.746Z,64.23
2023-03-29T08:43:15.434Z,64.06
2023-03-29T08:46:33.070Z,63.49
2023-03-29T08:49:18.228Z,62.75
2023-03-29T08:51:53.096Z,61.43
2023-03-29T08:54:29.068Z,60.70
2023-03-29T08:57:22.316Z,59.69
2023-03-29T09:00:05.691Z,59.11
2023-03-29T09:02:39.968Z,58.93
2023-03-29T09:05:25.937Z,59.04
2023-03-29T09:08:20.615Z,59.05
2023-03-29T09:11:23.333Z,59.18
2023-03-29T09:14:11.365Z,59.44
2023-03-29T09:16:56.329Z,59.43
2023-03-29T09:19:37.610Z,59.67
2023-03-29T09:22:22.623Z,59.66
2023-03-29T09:25:08.739Z,59.79
2023-03-29T09:27:52.567Z,59.89
2023-03-29T09:30:45.740Z,59.92
2023-03-29T09:33:27.659Z,59.82
2023-03-29T09:36:21.400Z,59.45
2023-03-29T09:38:57.698Z,59.47
2023-03-29T09:41:39.347Z,59.44
2023-03-29T09:44:30.351Z,59.35
2023-03-29T09:47:11.864Z,59.11
2023-03-29T09:49:49.180Z,58.32
2023-03-29T09:52:21.736Z,57.67
2023-03-29T09:55:16.209Z,57.10
2023-03-29T09:58:04.764Z,56.73
2023-03-29T10:00:42.863Z,56.46
2023-03-29T10:03:13.236Z,56.45
2023-03-29T10:05:55.742Z,56.17
2023-03-29T10:08:30.585Z,55.84
2023-03-29T10:11:10.221Z,55.77
2023-03-29T10:13:50.822Z,55.48
2023-03-29T10:16:25.994Z,55.01
2023-03-29T10:18:57.645Z,54.34
2023-03-29T10:21:31.896Z,54.34
2023-03-29T10:24:02.384Z,54.08
2023-03-29T10:26:37.075Z,54.08
2023-03-29T10:29:10.551Z,53.81
2023-03-29T10:31:43.524Z,53.93
2023-03-29T10:34:18.080Z,53.70
2023-03-29T10:36:58.589Z,53.74
2023-03-29T10:39:35.253Z,53.34
2023-03-29T10:42:08.600Z,53.01
2023-03-29T10:44:42.491Z,52.66
2023-03-29T10:47:20.410Z,52.31
2023-03-29T10:49:56.961Z,52.44
2023-03-29T10:52:29.621Z,52.29
2023-03-29T10:55:00.767Z,51.94
2023-03-29T10:57:43.459Z,51.39
2023-03-29T11:00:21.119Z,51.06
2023-03-29T11:03:16.625Z,50.66
2023-03-29T11:05:58.583Z,50.29
2023-03-29T11:08:54.362Z,49.57
2023-03-29T11:11:44.544Z,49.36
2023-03-29T11:14:28.186Z,49.61
2023-03-29T11:17:15.457Z,49.58
2023-03-29T11:20:11.465Z,49.39
2023-03-29T11:22:53.951Z,49.13
2023-03-29T11:25:38.744Z,47.94
2023-03-29T11:28:24.024Z,47.12
2023-03-29T11:31:06.358Z,46.44
2023-03-29T11:33:52.860Z,46.58
2023-03-29T11:36:39.082Z,46.52
2023-03-29T11:39:23.746Z,46.66
2023-03-29T11:41:59.976Z,46.84
2023-03-29T11:44:33.884Z,46.08
2023-03-29T11:47:12.042Z,46.17
2023-03-29T11:49:49.644Z,46.07
2023-03-29T11:52:30.399Z,45.84
2023-03-29T11:55:06.418Z,46.12
2023-03-29T11:57:43.071Z,46.08
2023-03-29T12:00:19.099Z,45.82
2023-03-29T12:02:54.586Z,45.65
2023-03-29T12:05:34.616Z,45.44
2023-03-29T12:08:16.631Z,45.67
2023-03-29T12:10:53.042Z,45.18
2023-03-29T12:13:30.158Z,45.44
2023-03-29T12:16:09.683Z,45.27
2023-03-29T12:18:45.595Z,45.03
2023-03-29T12:21:22.034Z,44.97
2023-03-29T12:23:57.869Z,44.31
2023-03-29T12:26:46.380Z,44.16
2023-03-29T12:29:42.525Z,44.26
2023-03-29T12:32:36.039Z,44.46
2023-03-29T12:35:37.648Z,43.76
2023-03-29T12:38:30.880Z,44.33
2023-03-29T12:41:41.834Z,44.58
2023-03-29T12:44:54.250Z,44.63
2023-03-29T12:47:30.490Z,45.13
2023-03-29T12:50:04.770Z,45.17
2023-03-29T12:52:37.988Z,44.92
2023-03-29T12:55:25.403Z,44.89
2023-03-29T12:58:09.355Z,45.17
2023-03-29T13:00:48.179Z,45.39
2023-03-29T13:03:31.646Z,45.41
2023-03-29T13:06:05.432Z,44.91
2023-03-29T13:08:39.527Z,45.00
2023-03-29T13:11:14.698Z,44.79
2023-03-29T13:13:47.710Z,44.76
2023-03-29T13:16:20.591Z,44.23
2023-03-29T13:19:16.579Z,44.71
2023-03-29T13:21:59.646Z,44.48
2023-03-29T13:24:54.564Z,44.65
2023-03-29T13:27:40.328Z,45.22
2023-03-29T13:30:36.037Z,46.81
2023-03-29T13:33:38.327Z,44.98
2023-03-29T13:36:24.451Z,43.38
2023-03-29T13:39:05.528Z,42.30
2023-03-29T13:41:50.418Z,42.21
2023-03-29T13:44:43.957Z,41.47
2023-03-29T13:47:54.968Z,41.62
2023-03-29T13:50:45.070Z,39.75
2023-03-29T13:53:31.169Z,38.64
2023-03-29T13:56:04.012Z,38.57
2023-03-29T13:58:44.640Z,38.75
2023-03-29T14:01:22.493Z,38.54
2023-03-29T14:03:55.844Z,38.50
2023-03-29T14:06:32.477Z,38.68
2023-03-29T14:09:07.395Z,38.56
2023-03-29T14:11:38.760Z,38.68
2023-03-29T14:14:11.188Z,38.86
2023-03-29T14:16:44.409Z,39.64
2023-03-29T14:19:22.091Z,40.07
2023-03-29T14:21:53.851Z,40.57
2023-03-29T14:24:28.786Z,40.26
2023-03-29T14:26:58.784Z,40.39
2023-03-29T14:29:34.515Z,40.28
2023-03-29T14:32:13.490Z,40.34
2023-03-29T14:34:50.471Z,40.51
2023-03-29T14:37:28.426Z,40.87
2023-03-29T14:40:01.634Z,41.35
2023-03-29T14:42:33.586Z,41.38
2023-03-29T14:45:09.600Z,41.56
2023-03-29T14:47:46.160Z,41.49
2023-03-29T14:50:29.774Z,41.53
2023-03-29T14:53:02.454Z,41.93
2023-03-29T14:55:36.972Z,42.60
2023-03-29T14:58:23.533Z,43.11
2023-03-29T15:00:55.818Z,43.63
2023-03-29T15:03:27.793Z,44.86
2023-03-29T15:06:07.563Z,45.51
2023-03-29T15:08:44.077Z,46.14
2023-03-29T15:11:27.423Z,47.11
2023-03-29T15:14:05.872Z,47.94
2023-03-29T15:16:36.651Z,49.78
2023-03-29T15:19:07.042Z,50.77
2023-03-29T15:21:44.023Z,51.56
2023-03-29T15:24:29.935Z,52.61
2023-03-29T15:27:04.330Z,53.92
2023-03-29T15:29:42.120Z,54.86
2023-03-29T15:32:22.760Z,55.88
2023-03-29T15:35:02.245Z,56.53
2023-03-29T15:37:35.482Z,56.95
2023-03-29T15:40:10.297Z,57.47
2023-03-29T15:42:40.814Z,58.22
2023-03-29T15:45:21.377Z,58.21
2023-03-29T15:47:51.777Z,58.33
2023-03-29T15:50:23.861Z,58.41
2023-03-29T15:53:05.392Z,58.01
2023-03-29T15:55:47.886Z,58.50
2023-03-29T15:58:20.867Z,58.50
2023-03-29T16:00:57.224Z,58.76
2023-03-29T16:03:27.571Z,59.16
2023-03-29T16:05:57.799Z,59.25
2023-03-29T16:08:30.663Z,59.84
2023-03-29T16:11:01.145Z,60.45
2023-03-29T16:13:31.205Z,60.78
2023-03-29T16:16:02.127Z,61.14
2023-03-29T16:18:34.022Z,61.61
2023-03-29T16:21:04.672Z,61.66
2023-03-29T16:23:40.252Z,61.81
2023-03-29T16:26:11.470Z,61.99
2023-03-29T16:28:41.595Z,62.17
2023-03-29T16:31:13.801Z,62.54
2023-03-29T16:33:44.313Z,62.70
2023-03-29T16:36:14.780Z,63.24
2023-03-29T16:38:47.502Z,64.11
2023-03-29T16:41:20.030Z,65.02
2023-03-29T16:43:49.950Z,65.49
2023-03-29T16:46:21.087Z,66.12
2023-03-29T16:48:54.282Z,66.89
2023-03-29T16:51:24.357Z,68.14
2023-03-29T16:53:57.094Z,68.91
2023-03-29T16:56:28.474Z,69.81
2023-03-29T16:59:00.048Z,70.90
2023-03-29T17:01:31.410Z,71.77
2023-03-29T17:04:05.616Z,72.85
2023-03-29T17:06:38.135Z,73.60
2023-03-29T17:09:11.555Z,74.01
2023-03-29T17:11:41.885Z,74.34
2023-03-29T17:14:11.937Z,75.23
2023-03-29T17:16:45.984Z,76.04
2023-03-29T17:19:16.031Z,76.74
2023-03-29T17:21:46.666Z,77.17
2023-03-29T17:24:22.540Z,78.20
2023-03-29T17:26:53.078Z,78.11
2023-03-29T17:29:23.192Z,78.71
2023-03-29T17:32:01.191Z,78.74
2023-03-29T17:34:33.155Z,78.75
2023-03-29T17:37:05.423Z,79.08
2023-03-29T17:39:38.614Z,78.92
2023-03-29T17:42:12.927Z,79.14
2023-03-29T17:44:49.741Z,79.05
2023-03-29T17:47:22.426Z,79.36
2023-03-29T17:49:53.781Z,79.66
2023-03-29T17:52:28.359Z,79.82
2023-03-29T17:55:03.457Z,79.79
2023-03-29T17:57:34.963Z,79.87
2023-03-29T18:00:11.548Z,80.53
2023-03-29T18:02:45.779Z,81.01
2023-03-29T18:05:20.403Z,81.15
2023-03-29T18:07:58.429Z,81.81
2023-03-29T18:10:31.354Z,82.12
2023-03-29T18:13:02.555Z,82.04
2023-03-29T18:15:38.889Z,81.96
2023-03-29T18:18:10.306Z,82.03
2023-03-29T18:20:41.742Z,81.96
2023-03-29T18:23:13.318Z,81.67
2023-03-29T18:25:57.643Z,81.95
2023-03-29T18:28:32.694Z,81.81
2023-03-29T18:31:02.706Z,81.75
2023-03-29T18:33:35.700Z,81.86
2023-03-29T18:36:11.945Z,81.89
2023-03-29T18:38:43.949Z,81.72
2023-03-29T18:41:18.012Z,82.05
2023-03-29T18:43:48.597Z,82.20
2023-03-29T18:46:21.509Z,82.13
2023-03-29T18:48:53.572Z,82.10
2023-03-29T18:51:23.696Z,82.08
2023-03-29T18:53:55.847Z,82.32
2023-03-29T18:56:30.005Z,82.33
2023-03-29T18:59:05.338Z,82.38
2023-03-29T19:01:35.491Z,82.29
2023-03-29T19:04:06.956Z,82.47
2023-03-29T19:06:36.930Z,82.49
2023-03-29T19:09:10.126Z,82.96
2023-03-29T19:11:42.689Z,83.11
2023-03-29T19:14:12.913Z,83.31
2023-03-29T19:16:46.031Z,83.36
2023-03-29T19:19:16.577Z,83.48
2023-03-29T19:21:47.858Z,83.59
2023-03-29T19:24:19.403Z,83.28
2023-03-29T19:26:56.184Z,83.21
2023-03-29T19:29:32.938Z,82.85
2023-03-29T19:32:09.466Z,82.98
2023-03-29T19:34:53.190Z,82.75
2023-03-29T19:37:34.986Z,82.47
2023-03-29T19:40:10.242Z,82.26
2023-03-29T19:42:44.739Z,82.23
2023-03-29T19:45:17.413Z,81.99
2023-03-29T19:47:54.359Z,81.76
2023-03-29T19:50:26.398Z,81.52
2023-03-29T19:52:58.792Z,81.63
2023-03-29T19:55:29.655Z,81.28
2023-03-29T19:58:02.516Z,81.16
2023-03-29T20:00:35.953Z,81.04
2023-03-29T20:03:09.413Z,80.75
2023-03-29T20:05:41.565Z,80.27
2023-03-29T20:08:13.044Z,79.67
2023-03-29T20:10:43.038Z,79.15
2023-03-29T20:13:31.503Z,78.97
2023-03-29T20:16:13.916Z,78.48
2023-03-29T20:18:45.874Z,78.15
2023-03-29T20:21:19.325Z,77.93
2023-03-29T20:23:49.809Z,77.68
2023-03-29T20:26:19.773Z,77.57
2023-03-29T20:29:05.086Z,77.29
2023-03-29T20:31:36.601Z,77.02
2023-03-29T20:34:11.628Z,77.13
2023-03-29T20:36:43.737Z,77.12
2023-03-29T20:39:18.082Z,77.02
2023-03-29T20:41:52.674Z,77.09
2023-03-29T20:44:28.982Z,77.02
2023-03-29T20:47:08.276Z,76.84
2023-03-29T20:49:44.071Z,76.80
2023-03-29T20:52:21.183Z,76.77
2023-03-29T20:54:52.629Z,76.78
2023-03-29T20:57:23.752Z,76.72
2023-03-29T21:00:01.256Z,76.83
2023-03-29T21:02:31.399Z,76.84
2023-03-29T21:05:02.988Z,77.00
2023-03-29T21:07:36.139Z,77.40
2023-03-29T21:10:07.451Z,77.49
2023-03-29T21:12:40.604Z,77.59
2023-03-29T21:15:18.312Z,77.54
2023-03-29T21:17:50.141Z,77.54
2023-03-29T21:20:20.717Z,77.38
2023-03-29T21:22:51.305Z,77.34
2023-03-29T21:25:23.173Z,77.43
2023-03-29T21:27:55.678Z,77.40
2023-03-29T21:30:30.100Z,77.46
2023-03-29T21:33:03.572Z,77.61
2023-03-29T21:35:39.562Z,77.84
2023-03-29T21:38:11.816Z,77.84
2023-03-29T21:40:47.920Z,77.93
2023-03-29T21:43:18.381Z,77.83
2023-03-29T21:45:53.806Z,78.11
2023-03-29T21:48:24.655Z,78.24
2023-03-29T21:50:57.652Z,78.08
2023-03-29T21:53:29.510Z,77.83
2023-03-29T21:56:03.507Z,77.99
2023-03-29T21:58:36.249Z,77.94
2023-03-29T22:01:15.171Z,77.74
2023-03-29T22:03:47.812Z,77.42
2023-03-29T22:06:18.734Z,77.11
2023-03-29T22:08:50.499Z,76.94
2023-03-29T22:11:20.550Z,76.60
2023-03-29T22:13:51.931Z,76.64
2023-03-29T22:16:25.875Z,76.65
2023-03-29T22:18:56.972Z,76.59
2023-03-29T22:21:31.360Z,76.72
2023-03-29T22:24:03.565Z,76.69
2023-03-29T22:26:35.698Z,76.71
2023-03-29T22:29:06.274Z,76.68
2023-03-29T22:31:39.710Z,76.67
2023-03-29T22:34:10.069Z,77.04
2023-03-29T22:36:40.622Z,77.04
2023-03-29T22:39:11.412Z,77.12
2023-03-29T22:41:42.142Z,77.05
2023-03-29T22:44:12.364Z,76.87
2023-03-29T22:46:45.053Z,76.92
2023-03-29T22:49:16.970Z,76.87
2023-03-29T22:51:47.055Z,76.74
2023-03-29T22:54:17.471Z,76.73
2023-03-29T22:56:47.490Z,76.43
2023-03-29T22:59:18.853Z,76.34
2023-03-29T23:01:51.803Z,76.18
2023-03-29T23:04:31.176Z,76.24
2023-03-29T23:07:02.278Z,75.92
2023-03-29T23:09:32.631Z,75.67
2023-03-29T23:12:04.160Z,75.64
2023-03-29T23:14:34.521Z,75.39
2023-03-29T23:17:09.351Z,75.27
2023-03-29T23:19:39.446Z,74.92
2023-03-29T23:22:09.479Z,74.84
2023-03-29T23:24:40.805Z,74.78
2023-03-29T23:27:10.764Z,74.63
2023-03-29T23:29:40.719Z,74.47
2023-03-29T23:32:14.751Z,74.71
2023-03-29T23:34:45.290Z,74.51
2023-03-29T23:37:15.335Z,74.36
2023-03-29T23:39:45.305Z,74.37
2023-03-29T23:42:15.218Z,74.31
2023-03-29T23:44:46.108Z,74.25
2023-03-29T23:47:18.717Z,74.18
2023-03-29T23:49:48.850Z,74.24
2023-03-29T23:52:18.804Z,74.06
2023-03-29T23:54:49.415Z,74.12
2023-03-29T23:57:19.617Z,73.94
2023-03-29T23:59:52.910Z,73.89
